Time;durP1;ratioP1;P1;durP2;ratioP2;P2;SDS_P1;SDS_P2;PMS_P1;PMS_P2;Temp;Humidity;BMP_temperature;BMP_pressure;BME280_temperature;BME280_humidity;BME280_pressure;Samples;Min_cycle;Max_cycle;Signal;HPM_P1;HPM_P2
2023/04/10 00:02:16;;;;;;;;;;;13.50;1.00;;;;;;5095262;28;19915;-72
2023/04/10 00:04:41;;;;;;;;;;;13.60;1.00;;;;;;5095719;28;19915;-73
2023/04/10 00:07:07;;;;;;;;;;;13.50;1.00;;;;;;5095613;28;19912;-72
2023/04/10 00:09:33;;;;;;;;;;;13.50;1.00;;;;;;5095621;28;19908;-71
2023/04/10 00:11:58;;;;;;;;;;;13.60;1.00;;;;;;5095553;28;19939;-72
2023/04/10 00:14:24;;;;;;;;;;;13.60;1.00;;;;;;5095485;28;19915;-73
2023/04/10 00:16:49;;;;;;;;;;;13.60;1.00;;;;;;5095626;28;20373;-72
2023/04/10 00:19:15;;;;;;;;;;;13.70;1.00;;;;;;5095401;28;19908;-72
2023/04/10 00:21:41;;;;;;;;;;;13.80;1.00;;;;;;5095374;28;20329;-72
2023/04/10 00:24:07;;;;;;;;;;;13.90;1.00;;;;;;5095375;28;19908;-71
2023/04/10 00:26:34;;;;;;;;;;;13.90;1.00;;;;;;5095135;28;20017;-71
2023/04/10 00:28:59;;;;;;;;;;;13.90;1.00;;;;;;5095526;28;19920;-73
2023/04/10 00:31:25;;;;;;;;;;;14.00;1.00;;;;;;5095164;28;19908;-73
2023/04/10 00:33:50;;;;;;;;;;;14.00;1.00;;;;;;5095130;28;20406;-72
2023/04/10 00:36:17;;;;;;;;;;;14.00;1.00;;;;;;5095078;28;19908;-74
2023/04/10 00:38:42;;;;;;;;;;;13.80;1.00;;;;;;5095174;28;19915;-73
2023/04/10 00:41:08;;;;;;;;;;;13.70;1.00;;;;;;5076450;28;19921;-74
2023/04/10 00:43:34;;;;;;;;;;;13.70;1.00;;;;;;5094856;28;19908;-73
2023/04/10 00:46:00;;;;;;;;;;;13.50;1.00;;;;;;5094835;28;19991;-72
2023/04/10 00:48:26;;;;;;;;;;;13.20;1.00;;;;;;5076577;28;19915;-73
2023/04/10 00:50:51;;;;;;;;;;;13.00;1.00;;;;;;5094926;28;19909;-71
2023/04/10 00:53:17;;;;;;;;;;;13.10;1.00;;;;;;5076545;28;19908;-72
2023/04/10 00:55:44;;;;;;;;;;;13.30;1.00;;;;;;5094734;28;19934;-72
2023/04/10 00:58:13;;;;;;;;;;;13.20;1.00;;;;;;5094608;28;19935;-72
2023/04/10 01:00:39;;;;;;;;;;;13.20;1.00;;;;;;5094846;28;19909;-73
2023/04/10 01:03:04;;;;;;;;;;;13.60;1.00;;;;;;5094576;28;19908;-71
2023/04/10 01:05:34;;;;;;;;;;;13.60;1.00;;;;;;5094531;28;19916;-73
2023/04/10 01:07:59;;;;;;;;;;;13.40;1.00;;;;;;5094566;28;20003;-71
2023/04/10 01:10:40;;;;;;;;;;;13.40;1.00;;;;;;5094596;28;19993;-72
2023/04/10 01:13:21;;;;;;;;;;;13.30;1.00;;;;;;5094409;28;19908;-72
2023/04/10 01:16:06;;;;;;;;;;;13.20;1.00;;;;;;5093944;28;20364;-73
2023/04/10 01:18:42;;;;;;;;;;;13.20;1.00;;;;;;5094438;28;20263;-73
2023/04/10 01:21:10;;;;;;;;;;;13.10;1.00;;;;;;5094400;28;20375;-72
2023/04/10 01:23:54;;;;;;;;;;;13.10;1.00;;;;;;5094193;28;20291;-71
2023/04/10 01:26:48;;;;;;;;;;;13.10;1.00;;;;;;5094125;28;20424;-73
2023/04/10 01:29:19;;;;;;;;;;;13.00;1.00;;;;;;5080511;28;19969;-73
2023/04/10 01:31:57;;;;;;;;;;;13.00;1.00;;;;;;5094345;28;19908;-73
2023/04/10 01:34:31;;;;;;;;;;;13.00;1.00;;;;;;5075622;28;19915;-74
2023/04/10 01:37:01;;;;;;;;;;;12.90;1.00;;;;;;5094101;28;19990;-73
2023/04/10 01:39:28;;;;;;;;;;;13.00;1.00;;;;;;5093982;28;20002;-72
2023/04/10 01:41:58;;;;;;;;;;;12.90;1.00;;;;;;5075621;28;19919;-72
2023/04/10 01:44:26;;;;;;;;;;;12.80;1.00;;;;;;5093953;28;20061;-72
2023/04/10 01:46:53;;;;;;;;;;;13.00;1.00;;;;;;5093880;28;19916;-71
2023/04/10 01:49:19;;;;;;;;;;;13.30;1.00;;;;;;5094462;28;20276;-73
2023/04/10 01:51:45;;;;;;;;;;;13.40;1.00;;;;;;5093887;28;19908;-73
2023/04/10 01:54:11;;;;;;;;;;;13.40;1.00;;;;;;5093955;28;19914;-72
2023/04/10 01:56:37;;;;;;;;;;;13.30;1.00;;;;;;5093870;28;20436;-73
2023/04/10 01:59:02;;;;;;;;;;;13.30;1.00;;;;;;5093785;28;19908;-72
2023/04/10 02:01:28;;;;;;;;;;;13.20;1.00;;;;;;5093870;28;20389;-72
2023/04/10 02:03:54;;;;;;;;;;;13.00;1.10;;;;;;5075619;28;19915;-72
2023/04/10 02:06:22;;;;;;;;;;;13.00;1.70;;;;;;5093672;28;20008;-72
2023/04/10 02:09:09;;;;;;;;;;;13.10;1.00;;;;;;5093681;28;19915;-71
2023/04/10 02:11:50;;;;;;;;;;;13.30;1.40;;;;;;5062882;28;20265;-73
2023/04/10 02:14:17;;;;;;;;;;;13.10;3.10;;;;;;5093835;28;19912;-72
2023/04/10 02:16:43;;;;;;;;;;;13.10;5.00;;;;;;5093756;28;19961;-71
2023/04/10 02:19:10;;;;;;;;;;;13.20;1.00;;;;;;5093721;28;20012;-72
2023/04/10 02:21:36;;;;;;;;;;;13.40;1.00;;;;;;5093632;28;19960;-72
2023/04/10 02:24:02;;;;;;;;;;;13.40;1.00;;;;;;5093501;28;20260;-73
2023/04/10 02:26:27;;;;;;;;;;;13.10;1.00;;;;;;5095944;28;19919;-71
2023/04/10 02:28:53;;;;;;;;;;;13.10;4.30;;;;;;5097572;28;19908;-73
2023/04/10 02:31:18;;;;;;;;;;;13.30;1.00;;;;;;5097444;28;20373;-72
2023/04/10 02:33:44;;;;;;;;;;;13.50;1.00;;;;;;5097461;28;19931;-72
2023/04/10 02:36:09;;;;;;;;;;;13.50;1.00;;;;;;5097575;28;19908;-73
2023/04/10 02:38:35;;;;;;;;;;;13.60;1.00;;;;;;5097502;28;19908;-74
2023/04/10 02:41:01;;;;;;;;;;;13.50;1.00;;;;;;5097171;28;19928;-72
2023/04/10 02:43:26;;;;;;;;;;;13.50;1.00;;;;;;5097250;28;19915;-71
2023/04/10 02:45:52;;;;;;;;;;;13.40;1.00;;;;;;5097196;28;19987;-72
2023/04/10 02:48:17;;;;;;;;;;;13.40;1.00;;;;;;5097249;28;19977;-72
2023/04/10 02:50:45;;;;;;;;;;;13.20;1.30;;;;;;5097168;28;19908;-73
2023/04/10 02:53:12;;;;;;;;;;;13.10;4.00;;;;;;5097142;28;19908;-72
2023/04/10 02:55:38;;;;;;;;;;;13.00;7.40;;;;;;5097033;28;19915;-73
2023/04/10 02:58:04;;;;;;;;;;;13.00;10.20;;;;;;5096960;28;19990;-72
2023/04/10 03:00:30;;;;;;;;;;;13.00;11.90;;;;;;5097115;28;19920;-73
2023/04/10 03:02:55;;;;;;;;;;;13.20;10.50;;;;;;5096932;28;19912;-71
2023/04/10 03:05:21;;;;;;;;;;;13.40;8.50;;;;;;5096930;28;20419;-73
2023/04/10 03:07:46;;;;;;;;;;;13.50;6.40;;;;;;5096689;28;19919;-74
2023/04/10 03:10:12;;;;;;;;;;;13.50;5.60;;;;;;5097153;28;20409;-72
2023/04/10 03:12:37;;;;;;;;;;;13.60;3.60;;;;;;5096984;28;19908;-73
2023/04/10 03:15:03;;;;;;;;;;;13.40;7.80;;;;;;5096682;28;19909;-70
2023/04/10 03:17:29;;;;;;;;;;;13.20;11.50;;;;;;5096644;28;19916;-73
2023/04/10 03:19:54;;;;;;;;;;;13.30;8.70;;;;;;5096559;28;19961;-72
2023/04/10 03:22:20;;;;;;;;;;;13.40;10.60;;;;;;5096885;28;19908;-72
2023/04/10 03:24:46;;;;;;;;;;;13.40;8.80;;;;;;5096479;28;19968;-72
2023/04/10 03:27:11;;;;;;;;;;;13.30;8.50;;;;;;5096348;28;19920;-72
2023/04/10 03:29:37;;;;;;;;;;;13.40;8.90;;;;;;5096829;28;19961;-71
2023/04/10 03:32:02;;;;;;;;;;;13.30;10.60;;;;;;5096563;28;19915;-72
2023/04/10 03:34:28;;;;;;;;;;;13.30;10.10;;;;;;5096302;28;20272;-71
2023/04/10 03:36:54;;;;;;;;;;;13.30;7.70;;;;;;5095601;28;20398;-71
2023/04/10 03:39:19;;;;;;;;;;;13.20;6.20;;;;;;5096131;28;20371;-72
2023/04/10 03:41:45;;;;;;;;;;;13.10;6.30;;;;;;5096005;28;19920;-73
2023/04/10 03:44:10;;;;;;;;;;;13.10;9.40;;;;;;5096330;28;20439;-71
2023/04/10 03:46:36;;;;;;;;;;;13.00;14.10;;;;;;5077900;28;19912;-71
2023/04/10 03:49:02;;;;;;;;;;;12.90;11.10;;;;;;5096368;28;19947;-72
2023/04/10 03:51:27;;;;;;;;;;;12.70;16.00;;;;;;5095979;28;19908;-71
2023/04/10 03:53:53;;;;;;;;;;;12.70;21.00;;;;;;5095923;28;19908;-73
2023/04/10 03:56:18;;;;;;;;;;;12.60;26.70;;;;;;5095885;28;19912;-72
2023/04/10 03:58:44;;;;;;;;;;;12.60;33.00;;;;;;5095841;28;19961;-73
2023/04/10 04:01:10;;;;;;;;;;;12.60;40.00;;;;;;5095989;28;19974;-74
2023/04/10 04:03:35;;;;;;;;;;;12.70;41.90;;;;;;5095832;28;19994;-72
2023/04/10 04:06:01;;;;;;;;;;;12.80;39.00;;;;;;5095604;28;19908;-71
2023/04/10 04:08:26;;;;;;;;;;;12.70;43.30;;;;;;5077514;28;20358;-73
2023/04/10 04:10:52;;;;;;;;;;;12.70;50.00;;;;;;5095589;28;19908;-73
2023/04/10 04:13:18;;;;;;;;;;;12.90;47.90;;;;;;5077433;28;19912;-72
2023/04/10 04:15:43;;;;;;;;;;;12.80;46.00;;;;;;5095605;28;20371;-73
2023/04/10 04:18:09;;;;;;;;;;;12.70;50.10;;;;;;5095564;28;19912;-71
2023/04/10 04:20:35;;;;;;;;;;;12.60;54.10;;;;;;5095693;28;19908;-72
2023/04/10 04:23:00;;;;;;;;;;;12.70;56.90;;;;;;5095361;28;19908;-73
2023/04/10 04:25:26;;;;;;;;;;;12.70;59.90;;;;;;5095627;28;19915;-72
2023/04/10 04:27:51;;;;;;;;;;;12.70;55.50;;;;;;5095240;28;20287;-73
2023/04/10 04:30:17;;;;;;;;;;;12.60;61.40;;;;;;5095005;28;19948;-73
2023/04/10 04:32:43;;;;;;;;;;;12.70;65.30;;;;;;5077057;28;19908;-71
2023/04/10 04:35:10;;;;;;;;;;;12.80;63.20;;;;;;5095451;28;20295;-72
2023/04/10 04:37:35;;;;;;;;;;;12.80;60.00;;;;;;5095131;28;19969;-74
2023/04/10 04:40:02;;;;;;;;;;;12.70;61.70;;;;;;5094731;28;20006;-74
2023/04/10 04:42:27;;;;;;;;;;;12.80;62.30;;;;;;5095448;28;19912;-73
2023/04/10 04:44:53;;;;;;;;;;;12.80;62.90;;;;;;5095118;28;20375;-72
2023/04/10 04:47:18;;;;;;;;;;;12.80;62.20;;;;;;5094829;28;19964;-72
2023/04/10 04:49:44;;;;;;;;;;;12.70;69.80;;;;;;5093869;28;19912;-71
2023/04/10 04:52:10;;;;;;;;;;;12.80;72.40;;;;;;5094875;28;20326;-72
2023/04/10 04:54:35;;;;;;;;;;;12.80;68.40;;;;;;5076616;28;20007;-72
2023/04/10 04:57:01;;;;;;;;;;;12.80;71.00;;;;;;5094788;28;19952;-72
2023/04/10 04:59:26;;;;;;;;;;;12.80;71.60;;;;;;5094794;28;19909;-72
2023/04/10 05:01:52;;;;;;;;;;;12.70;73.10;;;;;;5094696;28;19908;-72
2023/04/10 05:04:19;;;;;;;;;;;12.80;75.40;;;;;;5094569;28;20287;-72
2023/04/10 05:06:44;;;;;;;;;;;12.70;74.40;;;;;;5094908;28;19912;-72
2023/04/10 05:09:10;;;;;;;;;;;12.80;76.90;;;;;;5094518;28;19908;-72
2023/04/10 05:11:36;;;;;;;;;;;12.80;77.40;;;;;;5094447;28;20376;-73
2023/04/10 05:14:01;;;;;;;;;;;12.90;79.20;;;;;;5094377;28;20402;-72
2023/04/10 05:16:27;;;;;;;;;;;13.00;80.10;;;;;;5076136;28;19915;-72
2023/04/10 05:18:53;;;;;;;;;;;12.90;77.60;;;;;;5094610;28;19908;-72
2023/04/10 05:21:18;;;;;;;;;;;12.90;80.70;;;;;;5094547;28;19916;-71
2023/04/10 05:23:44;;;;;;;;;;;13.00;80.70;;;;;;5094262;28;19908;-73
2023/04/10 05:26:10;;;;;;;;;;;13.00;77.50;;;;;;5094184;28;20376;-72
2023/04/10 05:28:35;;;;;;;;;;;13.00;80.80;;;;;;5094165;28;19991;-71
2023/04/10 05:31:01;;;;;;;;;;;13.20;75.40;;;;;;5094147;28;19916;-73
2023/04/10 05:33:26;;;;;;;;;;;13.00;77.70;;;;;;5094084;28;20424;-72
2023/04/10 05:35:52;;;;;;;;;;;12.90;86.30;;;;;;5094028;28;19999;-72
2023/04/10 05:38:18;;;;;;;;;;;12.90;88.70;;;;;;5094049;28;20003;-72
2023/04/10 05:40:44;;;;;;;;;;;12.90;91.10;;;;;;5093948;28;20452;-73
2023/04/10 05:43:09;;;;;;;;;;;12.90;91.70;;;;;;5093953;28;19963;-72
2023/04/10 05:45:35;;;;;;;;;;;12.90;93.80;;;;;;5094209;28;19909;-72
2023/04/10 05:48:00;;;;;;;;;;;13.00;93.40;;;;;;5093835;28;19919;-72
2023/04/10 05:50:26;;;;;;;;;;;12.90;94.60;;;;;;5093877;28;19908;-72
2023/04/10 05:52:51;;;;;;;;;;;13.00;95.80;;;;;;5075726;28;20281;-71
2023/04/10 05:55:17;;;;;;;;;;;13.10;95.30;;;;;;5094142;28;19908;-72
2023/04/10 05:57:43;;;;;;;;;;;13.00;96.40;;;;;;5093951;28;19915;-74
2023/04/10 06:00:08;;;;;;;;;;;13.10;98.10;;;;;;5093439;28;19966;-73
2023/04/10 06:02:34;;;;;;;;;;;13.00;98.90;;;;;;5093793;28;19915;-72
2023/04/10 06:05:00;;;;;;;;;;;13.10;99.90;;;;;;5094159;28;19912;-73
2023/04/10 06:07:26;;;;;;;;;;;13.10;99.90;;;;;;5093689;28;20324;-72
2023/04/10 06:09:51;;;;;;;;;;;13.10;99.90;;;;;;5093739;28;19908;-73
2023/04/10 06:12:17;;;;;;;;;;;13.20;99.90;;;;;;5093744;28;20317;-72
2023/04/10 06:14:42;;;;;;;;;;;13.30;99.90;;;;;;5093659;28;20003;-71
2023/04/10 06:17:08;;;;;;;;;;;13.30;99.90;;;;;;5093643;28;20248;-72
2023/04/10 06:19:34;;;;;;;;;;;13.40;99.90;;;;;;5093636;28;19915;-73
2023/04/10 06:21:59;;;;;;;;;;;13.40;99.90;;;;;;5093604;28;19912;-71
2023/04/10 06:24:25;;;;;;;;;;;13.40;99.90;;;;;;5093538;28;19994;-72
2023/04/10 06:26:50;;;;;;;;;;;13.40;99.90;;;;;;5093488;28;19919;-74
2023/04/10 06:29:16;;;;;;;;;;;13.40;99.90;;;;;;5093565;28;19915;-71
2023/04/10 06:31:42;;;;;;;;;;;13.50;99.90;;;;;;5093612;28;20352;-72
2023/04/10 06:34:07;;;;;;;;;;;13.60;99.90;;;;;;5093483;28;19916;-72
2023/04/10 06:36:33;;;;;;;;;;;13.50;99.90;;;;;;5093618;28;19908;-73
2023/04/10 06:39:01;;;;;;;;;;;13.50;99.90;;;;;;5093421;28;19908;-72
2023/04/10 06:41:27;;;;;;;;;;;13.50;99.90;;;;;;5093020;28;19926;-73
2023/04/10 06:43:52;;;;;;;;;;;13.50;99.90;;;;;;5075250;28;19939;-73
2023/04/10 06:46:18;;;;;;;;;;;13.60;99.90;;;;;;5093383;28;19912;-73
2023/04/10 06:48:44;;;;;;;;;;;13.70;99.90;;;;;;5093492;28;19908;-72
2023/04/10 06:51:09;;;;;;;;;;;13.70;99.90;;;;;;5093551;28;20003;-72
2023/04/10 06:53:35;;;;;;;;;;;13.80;99.90;;;;;;5093253;28;20356;-72
2023/04/10 06:56:01;;;;;;;;;;;13.70;99.90;;;;;;5093762;28;19954;-72
2023/04/10 06:58:26;;;;;;;;;;;13.70;99.90;;;;;;5093157;28;20322;-73
2023/04/10 07:00:53;;;;;;;;;;;13.60;99.90;;;;;;5093192;28;19912;-73
2023/04/10 07:03:18;;;;;;;;;;;13.70;99.90;;;;;;5093262;28;19949;-72
2023/04/10 07:05:44;;;;;;;;;;;13.70;99.90;;;;;;5093078;28;19908;-73
2023/04/10 07:08:09;;;;;;;;;;;13.70;99.90;;;;;;5074885;28;19965;-74
2023/04/10 07:10:35;;;;;;;;;;;13.70;99.90;;;;;;5093316;28;20269;-74
2023/04/10 07:13:01;;;;;;;;;;;13.90;99.90;;;;;;5094640;28;19915;-73
2023/04/10 07:15:26;;;;;;;;;;;13.90;99.90;;;;;;5096720;28;20430;-73
2023/04/10 07:17:52;;;;;;;;;;;13.80;99.90;;;;;;5096598;28;19915;-73
2023/04/10 07:20:17;;;;;;;;;;;14.00;99.90;;;;;;5096784;28;20006;-72
2023/04/10 07:22:43;;;;;;;;;;;14.20;99.90;;;;;;5096493;28;19908;-73
2023/04/10 07:25:09;;;;;;;;;;;14.40;97.50;;;;;;5096562;28;19908;-72
2023/04/10 07:27:34;;;;;;;;;;;14.50;95.40;;;;;;5096400;28;20380;-72
2023/04/10 07:30:00;;;;;;;;;;;14.70;94.20;;;;;;5096434;28;19994;-72
2023/04/10 07:32:25;;;;;;;;;;;14.90;91.80;;;;;;5096396;28;19915;-72
2023/04/10 07:34:51;;;;;;;;;;;14.80;90.00;;;;;;5096453;28;20435;-72
2023/04/10 07:37:17;;;;;;;;;;;14.60;92.40;;;;;;5096463;28;19933;-72
2023/04/10 07:39:43;;;;;;;;;;;14.50;94.50;;;;;;5095995;28;19916;-73
2023/04/10 07:42:09;;;;;;;;;;;14.40;94.80;;;;;;5096272;28;19916;-72
2023/04/10 07:44:34;;;;;;;;;;;14.30;96.70;;;;;;5078017;28;19912;-72
2023/04/10 07:47:00;;;;;;;;;;;14.30;99.10;;;;;;5096044;28;19912;-73
2023/04/10 07:49:26;;;;;;;;;;;14.20;99.30;;;;;;5096056;28;19908;-72
2023/04/10 07:51:51;;;;;;;;;;;14.20;99.90;;;;;;5096075;28;19908;-75
2023/04/10 07:54:17;;;;;;;;;;;14.20;99.90;;;;;;5095998;28;19950;-72
2023/04/10 07:56:43;;;;;;;;;;;14.30;99.90;;;;;;5095850;28;19908;-72
2023/04/10 07:59:08;;;;;;;;;;;14.40;99.90;;;;;;5095810;28;19957;-72
2023/04/10 08:01:34;;;;;;;;;;;14.50;99.20;;;;;;5095741;28;19915;-72
2023/04/10 08:04:00;;;;;;;;;;;14.60;97.70;;;;;;5095825;28;19919;-73
2023/04/10 08:06:25;;;;;;;;;;;14.70;96.50;;;;;;5095808;28;19908;-72
2023/04/10 08:08:51;;;;;;;;;;;14.70;94.60;;;;;;5095424;28;19908;-72
2023/04/10 08:11:24;;;;;;;;;;;14.80;94.50;;;;;;5095505;28;20004;-72
2023/04/10 08:13:50;;;;;;;;;;;14.60;95.40;;;;;;5095919;28;20376;-72
2023/04/10 08:16:17;;;;;;;;;;;14.70;96.60;;;;;;5095503;28;19915;-72
2023/04/10 08:18:43;;;;;;;;;;;14.70;95.20;;;;;;5077337;28;19908;-73
2023/04/10 08:21:08;;;;;;;;;;;14.70;93.50;;;;;;5095444;28;19908;-73
2023/04/10 08:23:34;;;;;;;;;;;14.80;93.70;;;;;;5095132;28;19947;-73
2023/04/10 08:25:59;;;;;;;;;;;14.80;92.90;;;;;;5095763;28;19962;-72
2023/04/10 08:28:25;;;;;;;;;;;14.90;90.50;;;;;;5095415;28;20386;-72
2023/04/10 08:30:52;;;;;;;;;;;15.00;84.50;;;;;;5095200;28;19908;-73
2023/04/10 08:33:17;;;;;;;;;;;15.10;78.30;;;;;;5095162;28;19908;-73
2023/04/10 08:35:46;;;;;;;;;;;15.40;78.40;;;;;;5095141;28;19931;-73
2023/04/10 08:38:11;;;;;;;;;;;15.60;66.90;;;;;;5095297;28;19961;-72
2023/04/10 08:40:37;;;;;;;;;;;15.70;63.30;;;;;;5094892;28;20018;-73
2023/04/10 08:43:03;;;;;;;;;;;15.70;59.40;;;;;;5076750;28;19908;-73
2023/04/10 08:45:28;;;;;;;;;;;15.80;56.70;;;;;;5095119;28;19908;-73
2023/04/10 08:47:56;;;;;;;;;;;15.80;55.00;;;;;;5076661;28;19935;-73
2023/04/10 08:50:22;;;;;;;;;;;15.70;53.20;;;;;;5095038;28;20430;-73
2023/04/10 08:52:50;;;;;;;;;;;15.50;54.60;;;;;;5095111;28;19943;-73
2023/04/10 08:55:16;;;;;;;;;;;15.50;56.70;;;;;;5094770;28;19915;-73
2023/04/10 08:57:41;;;;;;;;;;;15.70;51.40;;;;;;5094644;28;19908;-73
2023/04/10 09:00:07;;;;;;;;;;;15.80;48.40;;;;;;5094689;28;19908;-73
2023/04/10 09:02:33;;;;;;;;;;;15.90;45.50;;;;;;5094828;28;19953;-73
2023/04/10 09:05:00;;;;;;;;;;;15.90;41.50;;;;;;5094604;28;20364;-72
2023/04/10 09:07:25;;;;;;;;;;;15.70;40.20;;;;;;5094752;28;19985;-73
2023/04/10 09:09:51;;;;;;;;;;;15.70;43.40;;;;;;5094533;28;20367;-72
2023/04/10 09:12:16;;;;;;;;;;;15.80;39.30;;;;;;5094555;28;20275;-72
2023/04/10 09:14:42;;;;;;;;;;;15.90;39.70;;;;;;5094418;28;19915;-73
2023/04/10 09:17:15;;;;;;;;;;;16.10;33.10;;;;;;5076164;28;19915;-73
2023/04/10 09:19:41;;;;;;;;;;;16.30;32.10;;;;;;5094630;28;19915;-72
2023/04/10 09:22:07;;;;;;;;;;;16.40;28.10;;;;;;5094341;28;19908;-72
2023/04/10 09:24:37;;;;;;;;;;;16.40;25.00;;;;;;5094317;28;19915;-73
2023/04/10 09:27:03;;;;;;;;;;;16.40;26.80;;;;;;5094555;28;19919;-72
2023/04/10 09:29:38;;;;;;;;;;;16.40;27.20;;;;;;5094479;28;19915;-74
2023/04/10 09:32:04;;;;;;;;;;;16.60;28.70;;;;;;5094138;28;19908;-73
2023/04/10 09:34:30;;;;;;;;;;;16.70;20.30;;;;;;5093946;28;19919;-73
2023/04/10 09:37:00;;;;;;;;;;;16.80;16.80;;;;;;5094080;28;20416;-72
2023/04/10 09:39:33;;;;;;;;;;;17.10;17.60;;;;;;5093883;28;19996;-73
2023/04/10 09:41:58;;;;;;;;;;;17.20;12.80;;;;;;5094163;28;19973;-73
2023/04/10 09:44:33;;;;;;;;;;;16.90;14.80;;;;;;5094077;28;20384;-73
2023/04/10 09:47:15;;;;;;;;;;;16.80;20.60;;;;;;5094307;28;19912;-72
2023/04/10 09:49:53;;;;;;;;;;;16.50;27.00;;;;;;5094055;28;20360;-72
2023/04/10 09:52:20;;;;;;;;;;;16.40;29.30;;;;;;5093845;28;19918;-73
2023/04/10 09:54:46;;;;;;;;;;;16.20;38.30;;;;;;5075706;28;19914;-72
2023/04/10 09:57:21;;;;;;;;;;;16.00;45.20;;;;;;5094117;28;20010;-72
2023/04/10 09:59:51;;;;;;;;;;;16.20;46.60;;;;;;5093984;28;20378;-73
2023/04/10 10:02:19;;;;;;;;;;;16.30;42.60;;;;;;5093866;28;19934;-74
2023/04/10 10:04:48;;;;;;;;;;;16.30;44.60;;;;;;5094018;28;19908;-73
2023/04/10 10:07:15;;;;;;;;;;;16.60;41.80;;;;;;5093624;28;19912;-73
2023/04/10 10:09:41;;;;;;;;;;;16.90;39.00;;;;;;5093800;28;19912;-73
2023/04/10 10:12:08;;;;;;;;;;;16.90;36.90;;;;;;5093777;28;19915;-72
2023/04/10 10:14:35;;;;;;;;;;;16.90;34.50;;;;;;5093700;28;19930;-72
2023/04/10 10:17:05;;;;;;;;;;;17.00;30.40;;;;;;5094131;28;19915;-73
2023/04/10 10:19:38;;;;;;;;;;;16.90;34.20;;;;;;5093549;28;19915;-74
2023/04/10 10:22:04;;;;;;;;;;;16.80;37.20;;;;;;5093765;28;19909;-73
2023/04/10 10:24:30;;;;;;;;;;;16.70;41.50;;;;;;5093672;28;19912;-72
2023/04/10 10:26:57;;;;;;;;;;;16.70;43.50;;;;;;5075399;28;19915;-71
2023/04/10 10:29:23;;;;;;;;;;;16.80;40.50;;;;;;5075436;28;19962;-73
2023/04/10 10:31:49;;;;;;;;;;;17.10;38.30;;;;;;5093531;28;20400;-72
2023/04/10 10:34:15;;;;;;;;;;;17.60;37.00;;;;;;5093711;28;19908;-73
2023/04/10 10:36:41;;;;;;;;;;;18.10;23.20;;;;;;5093651;28;19916;-72
2023/04/10 10:39:06;;;;;;;;;;;18.30;14.00;;;;;;5093422;28;19908;-73
2023/04/10 10:41:38;;;;;;;;;;;18.30;10.70;;;;;;5093038;28;19927;-73
2023/04/10 10:44:12;;;;;;;;;;;18.20;10.80;;;;;;5093770;28;20396;-72
2023/04/10 10:46:57;;;;;;;;;;;17.80;12.80;;;;;;5094350;28;20498;-72
2023/04/10 10:49:43;;;;;;;;;;;17.60;17.60;;;;;;5097278;28;19909;-73
2023/04/10 10:52:08;;;;;;;;;;;17.40;22.00;;;;;;5078814;28;19951;-73
2023/04/10 10:54:34;;;;;;;;;;;17.30;23.70;;;;;;5097076;28;19915;-73
2023/04/10 10:57:01;;;;;;;;;;;17.00;28.70;;;;;;5097162;28;19919;-71
2023/04/10 10:59:59;;;;;;;;;;;17.10;30.60;;;;;;5097072;28;19908;-73
2023/04/10 11:02:24;;;;;;;;;;;17.20;34.10;;;;;;5063105;28;19908;-72
2023/04/10 11:04:50;;;;;;;;;;;18.50;20.90;;;;;;5097022;28;19919;-73
2023/04/10 11:07:16;;;;;;;;;;;19.50;1.00;;;;;;5096804;28;20284;-73
2023/04/10 11:09:47;;;;;;;;;;;19.90;1.00;;;;;;5096863;28;19915;-72
2023/04/10 11:12:13;;;;;;;;;;;20.10;1.00;;;;;;5097200;28;20403;-72
2023/04/10 11:14:40;;;;;;;;;;;20.10;1.00;;;;;;5097098;28;19909;-73
2023/04/10 11:17:06;;;;;;;;;;;20.00;1.00;;;;;;5096722;28;19961;-74
2023/04/10 11:19:51;;;;;;;;;;;19.70;1.00;;;;;;5096762;28;19908;-72
2023/04/10 11:22:17;;;;;;;;;;;19.50;1.00;;;;;;5096911;28;19908;-72
2023/04/10 11:24:57;;;;;;;;;;;19.30;1.00;;;;;;5096602;28;19916;-72
2023/04/10 11:27:43;;;;;;;;;;;19.30;1.00;;;;;;5096802;28;19912;-73
2023/04/10 11:30:25;;;;;;;;;;;19.70;1.00;;;;;;5096916;28;19947;-73
2023/04/10 11:32:51;;;;;;;;;;;19.60;1.00;;;;;;5096434;28;19909;-72
2023/04/10 11:35:18;;;;;;;;;;;18.90;1.00;;;;;;5096427;28;19915;-73
2023/04/10 11:37:44;;;;;;;;;;;19.10;1.00;;;;;;5096482;28;19939;-72
2023/04/10 11:40:10;;;;;;;;;;;19.00;1.00;;;;;;5096022;28;19970;-74
2023/04/10 11:42:35;;;;;;;;;;;18.90;1.00;;;;;;5077947;28;19940;-73
2023/04/10 11:45:21;;;;;;;;;;;18.70;1.00;;;;;;5078306;28;20256;-73
2023/04/10 11:47:50;;;;;;;;;;;18.70;1.00;;;;;;5096181;28;19919;-72
2023/04/10 11:50:17;;;;;;;;;;;18.50;1.00;;;;;;5096098;28;20425;-73
2023/04/10 11:52:43;;;;;;;;;;;18.30;1.00;;;;;;5096055;28;19961;-72
2023/04/10 11:55:08;;;;;;;;;;;18.90;1.00;;;;;;5096020;28;19912;-73
2023/04/10 11:57:35;;;;;;;;;;;19.30;1.00;;;;;;5095742;28;19946;-73
2023/04/10 12:00:00;;;;;;;;;;;19.40;1.00;;;;;;5095376;28;19979;-74
2023/04/10 12:02:26;;;;;;;;;;;19.50;1.00;;;;;;5095870;28;19920;-73
2023/04/10 12:04:58;;;;;;;;;;;18.90;1.00;;;;;;5095815;28;19908;-73
2023/04/10 12:07:26;;;;;;;;;;;18.10;1.00;;;;;;5095904;28;19913;-73
2023/04/10 12:09:55;;;;;;;;;;;17.80;13.40;;;;;;5077539;28;20260;-73
2023/04/10 12:12:33;;;;;;;;;;;17.80;13.80;;;;;;5095615;28;19943;-73
2023/04/10 12:14:58;;;;;;;;;;;18.00;9.40;;;;;;5095735;28;19991;-73
2023/04/10 12:17:24;;;;;;;;;;;18.40;4.80;;;;;;5095520;28;20368;-73
2023/04/10 12:19:50;;;;;;;;;;;18.40;1.00;;;;;;5095537;28;19919;-73
2023/04/10 12:22:15;;;;;;;;;;;18.50;1.40;;;;;;5095945;28;19999;-73
2023/04/10 12:24:44;;;;;;;;;;;18.50;1.00;;;;;;5095786;28;19954;-73
2023/04/10 12:27:16;;;;;;;;;;;18.20;5.10;;;;;;5077085;28;20334;-73
2023/04/10 12:29:42;;;;;;;;;;;17.70;8.90;;;;;;5095311;28;19908;-73
2023/04/10 12:32:09;;;;;;;;;;;17.30;43.30;;;;;;5095333;28;19938;-73
2023/04/10 12:34:37;;;;;;;;;;;16.80;50.90;;;;;;5094986;28;19908;-72
2023/04/10 12:37:03;;;;;;;;;;;16.80;36.10;;;;;;5095373;28;20436;-72
2023/04/10 12:39:29;;;;;;;;;;;17.20;41.00;;;;;;5094909;28;19908;-73
2023/04/10 12:42:13;;;;;;;;;;;18.00;23.70;;;;;;5076525;28;19912;-73
2023/04/10 12:44:49;;;;;;;;;;;18.70;10.60;;;;;;5094987;28;19912;-73
2023/04/10 12:47:14;;;;;;;;;;;18.50;2.10;;;;;;5094754;28;19912;-73
2023/04/10 12:49:40;;;;;;;;;;;17.90;6.20;;;;;;5095136;28;19918;-74
2023/04/10 12:52:06;;;;;;;;;;;17.70;8.20;;;;;;5094804;28;19908;-73
2023/04/10 12:54:32;;;;;;;;;;;17.60;7.70;;;;;;5094798;28;19909;-72
2023/04/10 12:56:58;;;;;;;;;;;17.60;1.80;;;;;;5094652;28;19915;-73
2023/04/10 12:59:25;;;;;;;;;;;18.00;1.00;;;;;;5095013;28;19994;-72
2023/04/10 13:01:51;;;;;;;;;;;18.60;1.00;;;;;;5094692;28;19919;-72
2023/04/10 13:04:17;;;;;;;;;;;19.40;1.00;;;;;;5094629;28;20414;-73
2023/04/10 13:06:43;;;;;;;;;;;19.20;1.00;;;;;;5076408;28;19912;-72
2023/04/10 13:09:09;;;;;;;;;;;19.50;1.00;;;;;;5094847;28;19965;-74
2023/04/10 13:11:35;;;;;;;;;;;19.10;1.00;;;;;;5075585;28;19908;-73
2023/04/10 13:14:00;;;;;;;;;;;18.70;1.00;;;;;;5094566;28;19912;-74
2023/04/10 13:16:26;;;;;;;;;;;18.80;1.00;;;;;;5076245;28;20430;-73
2023/04/10 13:18:51;;;;;;;;;;;19.30;1.00;;;;;;5094799;28;19915;-73
2023/04/10 13:21:21;;;;;;;;;;;20.60;1.00;;;;;;5094652;28;19998;-75
2023/04/10 13:23:47;;;;;;;;;;;21.70;1.00;;;;;;5094365;28;19908;-75
2023/04/10 13:26:13;;;;;;;;;;;23.40;1.00;;;;;;5076105;28;19908;-73
2023/04/10 13:28:39;;;;;;;;;;;23.80;1.00;;;;;;5094648;28;19957;-73
2023/04/10 13:31:05;;;;;;;;;;;23.00;1.00;;;;;;5094177;28;19909;-73
2023/04/10 13:33:30;;;;;;;;;;;25.60;1.00;;;;;;5094177;28;20452;-75
2023/04/10 13:35:56;;;;;;;;;;;26.70;1.00;;;;;;5076022;28;19908;-75
2023/04/10 13:38:21;;;;;;;;;;;25.90;1.00;;;;;;5094004;28;19908;-74
2023/04/10 13:40:47;;;;;;;;;;;25.50;1.00;;;;;;5093894;28;20030;-72
2023/04/10 13:43:12;;;;;;;;;;;24.90;1.00;;;;;;5094294;28;19908;-74
2023/04/10 13:45:38;;;;;;;;;;;24.60;1.00;;;;;;5094194;28;19915;-73
2023/04/10 13:48:06;;;;;;;;;;;26.40;1.00;;;;;;5093985;28;19912;-74
2023/04/10 13:50:32;;;;;;;;;;;25.40;1.00;;;;;;5093954;28;19998;-74
2023/04/10 13:52:57;;;;;;;;;;;23.50;1.00;;;;;;5094364;28;20431;-73
2023/04/10 13:55:23;;;;;;;;;;;23.20;1.00;;;;;;5093912;28;19954;-74
2023/04/10 13:57:49;;;;;;;;;;;22.40;1.00;;;;;;5093814;28;20368;-71
2023/04/10 14:00:14;;;;;;;;;;;22.70;1.00;;;;;;5093835;28;19944;-73
2023/04/10 14:02:40;;;;;;;;;;;23.30;1.00;;;;;;5093754;28;19919;-73
2023/04/10 14:05:06;;;;;;;;;;;22.30;1.00;;;;;;5094022;28;19965;-73
2023/04/10 14:07:32;;;;;;;;;;;21.20;1.00;;;;;;5093583;28;19999;-73
2023/04/10 14:09:58;;;;;;;;;;;21.50;1.00;;;;;;5093682;28;19940;-74
2023/04/10 14:12:23;;;;;;;;;;;21.30;1.00;;;;;;5075613;28;19912;-73
2023/04/10 14:14:49;;;;;;;;;;;22.80;1.00;;;;;;5093997;28;19969;-73
2023/04/10 14:17:15;;;;;;;;;;;23.10;1.00;;;;;;5093431;28;19951;-74
2023/04/10 14:19:40;;;;;;;;;;;24.00;1.00;;;;;;5093591;28;20007;-75
2023/04/10 14:22:06;;;;;;;;;;;25.20;1.00;;;;;;5095570;28;19961;-75
2023/04/10 14:24:31;;;;;;;;;;;25.30;1.00;;;;;;5097744;28;19954;-73